Flight Track Log - Related Links

Times and Time Zones

All times are in EDT time to prevent confusion due to time zone crossing. See the AWE3921 flight status page for this flight to view local times or setup timezone preferences in your user account.

Time Position Orientation Groundspeed Altitude Reporting Facility
EDT Latitude Longitude Course Direction KTS MPH feet Rate Location/Type
Fri 12:19:16 PM 43.0933 -77.7003 180° South 159 183 1,500  Level Cleveland Center
Fri 12:20:04 PM 43.0586 -77.7275 210° Southwest 187 215 3,000 1,810 Climbing Cleveland Center
Fri 12:21:00 PM 42.8268 -77.7185 192° South  Level FlightAware
Fri 12:21:12 PM 42.9858 -77.7364 185° South 213 245 5,000  Level Cleveland Center
Fri 12:22:00 PM 42.7307 -77.7460 192° South  Level FlightAware
Fri 12:22:12 PM 42.9128 -77.7342 179° South 246 283 7,400  Level Cleveland Center
Fri 12:23:00 PM 42.6347 -77.7746 192° South  Level FlightAware
Fri 12:23:12 PM 42.8378 -77.7347 180° South 264 304 9,700  Level Cleveland Center
Fri 12:24:00 PM 42.5385 -77.8000 180° South  Level FlightAware
Fri 12:24:12 PM 42.7569 -77.7553 191° South 281 323 12,000  Level Cleveland Center
Fri 12:25:12 PM 42.6700 -77.7761 190° South 298 343 14,000 2,000 Climbing Cleveland Center
Fri 12:26:12 PM 42.5789 -77.8028 192° South 325 374 16,000 1,800 Climbing Cleveland Center
Fri 12:27:12 PM 42.4917 -77.8208 189° South 339 390 17,600 1,550 Climbing Cleveland Center
Fri 12:28:12 PM 42.3964 -77.8475 192° South 353 406 19,100 1,500 Climbing Cleveland Center
Fri 12:29:12 PM 42.2992 -77.8714 190° South 353 406 20,600 1,500 Climbing Cleveland Center
Fri 12:30:12 PM 42.1975 -77.8981 191° South 358 412 22,100 1,450 Climbing Cleveland Center
Fri 12:31:12 PM 42.0961 -77.9247 191° South 369 425 23,500 1,450 Climbing Cleveland Center
Fri 12:32:12 PM 41.9925 -77.9514 191° South 374 430 25,000 750 Climbing Cleveland Center
Fri 12:33:12 PM 41.8867 -77.9753 190° South 380 437 25,000  Level Cleveland Center
Fri 12:34:12 PM 41.7831 -78.0017 191° South 385 443 25,000  Level Cleveland Center
Fri 12:35:12 PM 41.6772 -78.0281 191° South 390 449 25,000  Level Cleveland Center
Fri 12:36:12 PM 41.5736 -78.0544 191° South 390 449 25,000  Level Cleveland Center
Fri 12:37:12 PM 41.4678 -78.0808 191° South 390 449 25,000  Level Cleveland Center
Fri 12:37:59 PM 41.3783 -78.1039 191° South 388 447 25,000  Level New Center
Fri 12:38:59 PM 41.2747 -78.1283 190° South 388 447 25,000  Level New Center
Fri 12:39:57 PM 41.1686 -78.1225 178° South 382 440 25,000  Level New Center
Fri 12:40:57 PM 41.0678 -78.0675 158° South 382 440 25,000  Level New Center
Fri 12:41:58 PM 40.9689 -78.0183 159° South 387 445 25,000  Level New Center
Fri 12:42:58 PM 40.8772 -77.9483 150° Southeast 387 445 25,000  Level New Center
Fri 12:43:59 PM 40.7972 -77.8575 139° Southeast 381 438 25,000 -347 Level New Center
Fri 12:44:59 PM 40.7172 -77.7644 139° Southeast 386 444 24,300 -1,678 Descending New Center
Fri 12:45:57 PM 40.6236 -77.6919 150° Southeast 386 444 21,700 -2,521 Descending New Center
Fri 12:46:58 PM 40.5333 -77.6283 152° Southeast 380 437 19,300 -1,850 Descending New Center
Fri 12:47:57 PM 40.4533 -77.5711 151° Southeast 374 430 18,000 -655 Descending New Center
Fri 12:48:57 PM 40.3592 -77.5047 152° Southeast 359 413 18,000  Level New Center
Fri 12:49:58 PM 40.2831 -77.4483 151° Southeast 351 404 18,000  Level New Center
Fri 12:50:58 PM 40.1869 -77.3792 151° Southeast 351 404 18,000  Level New Center
Fri 12:51:59 PM 40.1089 -77.3231 151° Southeast 358 412 18,000  Level New Center
Fri 12:52:59 PM 40.0144 -77.2544 151° Southeast 358 412 18,000  Level New Center
Fri 12:53:57 PM 39.9261 -77.1922 152° Southeast 358 412 18,000 -67 Level New Center
Fri 12:55:58 PM 39.7517 -77.0653 151° Southeast 353 406 17,800 -398 Descending New Center
Fri 12:56:58 PM 39.6650 -77.0064 152° Southeast 358 412 16,800 -1,339 Descending New Center
Fri 12:57:59 PM 39.5786 -76.9450 151° Southeast 358 412 15,100 -1,565 Descending New Center
Fri 12:58:53 PM 39.5000 -76.8833 149° Southeast 337 388 13,800 -1,500 Descending Potomac TRACON
Fri 12:59:47 PM 39.4333 -76.8333 150° Southeast 329 379 12,400 -1,316 Descending Potomac TRACON
Fri 01:00:47 PM 39.3500 -76.7833 155° Southeast 310 357 11,300 -850 Descending Potomac TRACON
Fri 01:01:47 PM 39.2833 -76.7333 150° Southeast 294 338 10,700 -650 Descending Potomac TRACON
Fri 01:02:47 PM 39.2000 -76.6833 155° Southeast 278 320 10,000 -350 Descending Potomac TRACON
Fri 01:03:47 PM 39.1333 -76.7000 191° South 301 346 10,000  Level Potomac TRACON
Fri 01:04:48 PM 39.0667 -76.7833 224° Southwest 301 346 10,000 -850 Level Potomac TRACON
Fri 01:05:47 PM 39.0167 -76.8500 226° Southwest 301 346 8,300 -1,800 Descending Potomac TRACON
Fri 01:06:48 PM 38.9500 -76.9167 218° Southwest 299 344 6,400 -1,304 Descending Potomac TRACON
Fri 01:07:42 PM 38.8833 -76.9500 201° Southwest 279 321 5,800 -1,400 Descending Potomac TRACON
Fri 01:08:48 PM 38.8000 -76.9500 180° South 270 311 3,600 -2,000 Descending Potomac TRACON

Login

Don't have an account? Register now (free) for customized features, flight alerts, and more!